Date,TemperatureHighF,TemperatureAvgF,TemperatureLowF,DewpointHighF,DewpointAvgF,DewpointLowF,HumidityHigh,HumidityAvg,HumidityLow,PressureMaxIn,PressureMinIn,WindSpeedMaxMPH,WindSpeedAvgMPH,GustSpeedMaxMPH,PrecipitationSumIn
2013-5-1,85.5,73.3,59.0,57.6,51.4,43.5,74,51,29,30.22,30.03,21,7,21,0.00
2013-5-2,84.0,71.3,56.5,56.2,51.7,43.2,77,54,30,30.24,29.96,24,8,24,0.00
2013-5-3,78.8,65.6,49.5,56.5,49.5,44.2,83,60,40,30.14,28.34,27,10,27,0.00
2013-5-4,73.9,66.0,59.5,45.9,38.7,20.9,58,41,18,30.08,30.00,27,12,27,0.00
2013-5-5,72.5,63.3,52.3,44.8,41.5,35.9,68,48,30,30.08,30.02,25,8,25,0.00
2013-5-6,78.8,66.0,55.9,52.0,42.9,35.4,62,46,29,30.06,29.89,15,5,15,0.00
2013-5-7,77.4,67.6,55.4,51.5,47.7,43.0,72,52,34,30.06,29.88,17,4,17,0.00
2013-5-8,87.3,70.7,57.0,52.9,46.8,38.1,78,48,24,30.07,29.84,14,3,14,0.00
2013-5-9,85.1,67.2,53.2,57.9,48.9,34.0,88,57,22,30.04,29.84,19,4,19,0.04
2013-5-10,68.7,58.6,44.4,61.3,53.5,43.8,99,85,55,29.92,29.75,22,10,22,0.20
2013-5-11,60.4,47.4,39.6,53.3,41.2,30.5,99,81,51,29.92,29.76,35,8,35,0.26
2013-5-12,54.0,43.9,35.2,34.7,26.6,14.8,88,55,25,29.98,29.85,28,9,28,0.02
2013-5-13,63.1,50.6,35.6,31.5,16.8,-4.1,78,38,10,30.22,29.93,19,5,19,0.00
2013-5-14,90.1,68.8,50.9,58.3,38.2,22.0,59,38,17,30.12,29.68,26,9,26,0.00
2013-5-15,86.9,77.1,66.6,59.3,48.6,36.1,69,42,21,29.88,29.68,24,9,24,0.02
2013-5-16,88.7,73.2,57.6,50.5,34.7,10.7,74,36,10,30.01,29.74,15,3,15,0.00
2013-5-17,84.7,70.2,57.4,61.1,44.1,20.9,80,44,14,30.12,29.88,22,8,22,0.00
2013-5-18,83.1,70.1,59.5,57.0,47.6,35.4,62,47,39,30.15,30.00,17,7,17,0.00
2013-5-19,89.4,75.8,60.4,62.1,55.3,47.8,67,52,34,30.07,29.82,21,6,21,0.00
2013-5-20,90.1,79.5,70.3,69.8,63.4,56.4,89,61,37,29.92,29.72,27,10,27,0.01
2013-5-21,86.2,75.2,63.9,68.0,61.9,57.2,98,67,44,29.92,29.63,34,9,34,0.33
2013-5-22,78.3,70.1,62.8,65.7,61.4,53.9,94,75,53,29.82,29.55,26,7,26,0.12
2013-5-23,62.6,54.3,45.7,58.9,51.4,41.3,96,90,82,30.16,29.78,21,9,21,0.13
2013-5-24,64.2,51.5,39.2,41.9,34.5,21.8,96,60,24,30.42,30.16,17,7,17,0.00
2013-5-25,69.8,55.5,40.6,43.9,37.4,31.3,92,58,28,30.35,30.26,12,4,12,0.00
2013-5-26,72.5,61.0,48.6,48.0,35.9,23.5,75,46,20,30.31,30.22,20,8,20,0.00
2013-5-27,62.8,56.5,50.9,57.6,50.6,34.5,99,83,39,30.25,29.89,26,13,26,0.59
2013-5-28,81.9,70.8,57.2,67.3,63.8,56.9,99,80,60,30.01,29.75,36,9,36,0.56
2013-5-29,87.1,74.7,63.7,68.2,63.0,59.4,94,70,44,30.04,29.88,22,7,22,0.11
2013-5-30,87.4,78.1,69.1,66.4,63.3,60.1,82,63,43,30.09,29.82,31,10,31,0.05
2013-5-31,79.0,71.4,64.8,68.3,65.0,59.8,94,81,65,30.04,29.76,36,9,36,0.57